sensor_id;sensor_type;location;lat;lon;timestamp;P1;durP1;ratioP1;P2;durP2;ratioP2
18818;SDS011;9537;45.594;9.294;2022-07-29T00:00:48;3.30;;;2.33;;
18818;SDS011;9537;45.594;9.294;2022-07-29T00:01:49;2.33;;;2.08;;
18818;SDS011;9537;45.594;9.294;2022-07-29T00:02:53;2.60;;;2.35;;
18818;SDS011;9537;45.594;9.294;2022-07-29T00:03:54;2.42;;;2.10;;
18818;SDS011;9537;45.594;9.294;2022-07-29T00:04:56;2.10;;;1.90;;
18818;SDS011;9537;45.594;9.294;2022-07-29T00:05:57;2.45;;;2.05;;
18818;SDS011;9537;45.594;9.294;2022-07-29T00:06:59;2.17;;;1.90;;
18818;SDS011;9537;45.594;9.294;2022-07-29T00:08:01;2.53;;;2.25;;
18818;SDS011;9537;45.594;9.294;2022-07-29T00:09:03;3.05;;;2.13;;
18818;SDS011;9537;45.594;9.294;2022-07-29T00:10:04;2.50;;;1.75;;
18818;SDS011;9537;45.594;9.294;2022-07-29T00:11:07;2.50;;;2.13;;
18818;SDS011;9537;45.594;9.294;2022-07-29T00:12:08;2.00;;;1.80;;
18818;SDS011;9537;45.594;9.294;2022-07-29T00:13:10;3.55;;;2.13;;
18818;SDS011;9537;45.594;9.294;2022-07-29T00:14:11;2.03;;;1.83;;
18818;SDS011;9537;45.594;9.294;2022-07-29T00:15:14;2.33;;;1.85;;
18818;SDS011;9537;45.594;9.294;2022-07-29T00:16:15;2.67;;;1.95;;
18818;SDS011;9537;45.594;9.294;2022-07-29T00:17:17;2.97;;;2.22;;
18818;SDS011;9537;45.594;9.294;2022-07-29T00:18:18;2.58;;;2.28;;
18818;SDS011;9537;45.594;9.294;2022-07-29T00:19:20;2.35;;;2.15;;
18818;SDS011;9537;45.594;9.294;2022-07-29T00:39:46;2.50;;;2.30;;
18818;SDS011;9537;45.594;9.294;2022-07-29T00:40:47;2.40;;;2.00;;
18818;SDS011;9537;45.594;9.294;2022-07-29T00:41:49;3.00;;;2.08;;
18818;SDS011;9537;45.594;9.294;2022-07-29T00:42:51;2.53;;;1.90;;
18818;SDS011;9537;45.594;9.294;2022-07-29T00:43:53;4.05;;;2.05;;
18818;SDS011;9537;45.594;9.294;2022-07-29T00:44:55;2.60;;;2.40;;
18818;SDS011;9537;45.594;9.294;2022-07-29T00:45:56;3.38;;;2.72;;
18818;SDS011;9537;45.594;9.294;2022-07-29T00:46:58;2.50;;;2.08;;
18818;SDS011;9537;45.594;9.294;2022-07-29T00:47:59;2.40;;;2.00;;
18818;SDS011;9537;45.594;9.294;2022-07-29T00:49:01;3.30;;;1.92;;
18818;SDS011;9537;45.594;9.294;2022-07-29T00:50:03;2.55;;;2.30;;
18818;SDS011;9537;45.594;9.294;2022-07-29T00:51:06;3.00;;;2.08;;
18818;SDS011;9537;45.594;9.294;2022-07-29T00:52:10;3.00;;;2.00;;
18818;SDS011;9537;45.594;9.294;2022-07-29T00:53:12;3.05;;;2.45;;
18818;SDS011;9537;45.594;9.294;2022-07-29T00:54:14;2.40;;;2.20;;
18818;SDS011;9537;45.594;9.294;2022-07-29T00:55:16;2.30;;;2.10;;
18818;SDS011;9537;45.594;9.294;2022-07-29T00:56:19;2.53;;;2.22;;
18818;SDS011;9537;45.594;9.294;2022-07-29T00:57:20;2.63;;;1.92;;
18818;SDS011;9537;45.594;9.294;2022-07-29T00:58:22;3.30;;;2.30;;
18818;SDS011;9537;45.594;9.294;2022-07-29T00:59:24;3.25;;;1.85;;
18818;SDS011;9537;45.594;9.294;2022-07-29T01:00:26;3.03;;;2.05;;
18818;SDS011;9537;45.594;9.294;2022-07-29T01:01:30;2.22;;;2.03;;
18818;SDS011;9537;45.594;9.294;2022-07-29T01:02:32;3.13;;;2.00;;
18818;SDS011;9537;45.594;9.294;2022-07-29T01:03:34;2.83;;;2.00;;
18818;SDS011;9537;45.594;9.294;2022-07-29T01:04:35;5.05;;;2.30;;
18818;SDS011;9537;45.594;9.294;2022-07-29T01:05:37;2.17;;;1.92;;
18818;SDS011;9537;45.594;9.294;2022-07-29T01:06:41;2.55;;;2.30;;
18818;SDS011;9537;45.594;9.294;2022-07-29T01:07:43;2.75;;;2.25;;
18818;SDS011;9537;45.594;9.294;2022-07-29T01:08:46;4.70;;;2.25;;
18818;SDS011;9537;45.594;9.294;2022-07-29T01:09:49;2.70;;;2.30;;
18818;SDS011;9537;45.594;9.294;2022-07-29T01:10:53;2.42;;;2.10;;
18818;SDS011;9537;45.594;9.294;2022-07-29T01:11:56;2.45;;;2.25;;
18818;SDS011;9537;45.594;9.294;2022-07-29T01:12:59;2.35;;;2.15;;
18818;SDS011;9537;45.594;9.294;2022-07-29T01:14:03;4.60;;;2.67;;
18818;SDS011;9537;45.594;9.294;2022-07-29T01:15:07;2.97;;;2.13;;
18818;SDS011;9537;45.594;9.294;2022-07-29T01:16:13;3.33;;;2.50;;
18818;SDS011;9537;45.594;9.294;2022-07-29T01:17:31;2.72;;;2.45;;
18818;SDS011;9537;45.594;9.294;2022-07-29T01:18:38;2.40;;;2.15;;
18818;SDS011;9537;45.594;9.294;2022-07-29T01:19:46;4.13;;;1.92;;
18818;SDS011;9537;45.594;9.294;2022-07-29T01:21:11;2.65;;;2.20;;
18818;SDS011;9537;45.594;9.294;2022-07-29T01:22:27;2.10;;;1.88;;
18818;SDS011;9537;45.594;9.294;2022-07-29T01:23:48;3.72;;;2.20;;
18818;SDS011;9537;45.594;9.294;2022-07-29T01:25:12;2.92;;;2.15;;
18818;SDS011;9537;45.594;9.294;2022-07-29T01:26:31;2.95;;;2.20;;
18818;SDS011;9537;45.594;9.294;2022-07-29T01:27:44;3.35;;;2.40;;
18818;SDS011;9537;45.594;9.294;2022-07-29T01:29:02;2.47;;;2.28;;
18818;SDS011;9537;45.594;9.294;2022-07-29T01:30:07;4.90;;;2.30;;
18818;SDS011;9537;45.594;9.294;2022-07-29T01:31:09;4.75;;;2.50;;
18818;SDS011;9537;45.594;9.294;2022-07-29T01:32:12;2.40;;;2.20;;
18818;SDS011;9537;45.594;9.294;2022-07-29T01:33:17;6.32;;;2.33;;
18818;SDS011;9537;45.594;9.294;2022-07-29T01:34:48;2.65;;;2.17;;
18818;SDS011;9537;45.594;9.294;2022-07-29T01:35:53;2.20;;;1.98;;
18818;SDS011;9537;45.594;9.294;2022-07-29T01:36:55;2.40;;;2.20;;
18818;SDS011;9537;45.594;9.294;2022-07-29T01:38:08;2.63;;;2.42;;
18818;SDS011;9537;45.594;9.294;2022-07-29T01:39:14;3.10;;;2.67;;
18818;SDS011;9537;45.594;9.294;2022-07-29T01:40:20;2.40;;;2.20;;
18818;SDS011;9537;45.594;9.294;2022-07-29T01:41:26;2.15;;;2.05;;
18818;SDS011;9537;45.594;9.294;2022-07-29T01:42:32;3.00;;;2.30;;
18818;SDS011;9537;45.594;9.294;2022-07-29T01:43:38;2.75;;;2.53;;
18818;SDS011;9537;45.594;9.294;2022-07-29T01:44:48;5.65;;;2.50;;
18818;SDS011;9537;45.594;9.294;2022-07-29T01:45:56;2.92;;;2.72;;
18818;SDS011;9537;45.594;9.294;2022-07-29T01:47:03;2.97;;;2.67;;
18818;SDS011;9537;45.594;9.294;2022-07-29T01:48:13;4.28;;;2.78;;
18818;SDS011;9537;45.594;9.294;2022-07-29T01:49:20;3.35;;;2.55;;
18818;SDS011;9537;45.594;9.294;2022-07-29T01:50:26;3.85;;;2.65;;
18818;SDS011;9537;45.594;9.294;2022-07-29T01:51:35;2.78;;;2.47;;
18818;SDS011;9537;45.594;9.294;2022-07-29T01:52:42;3.88;;;2.60;;
18818;SDS011;9537;45.594;9.294;2022-07-29T01:53:50;3.88;;;2.53;;
18818;SDS011;9537;45.594;9.294;2022-07-29T01:54:56;4.85;;;2.50;;
18818;SDS011;9537;45.594;9.294;2022-07-29T01:56:00;3.80;;;2.60;;
18818;SDS011;9537;45.594;9.294;2022-07-29T01:57:03;6.32;;;2.67;;
18818;SDS011;9537;45.594;9.294;2022-07-29T01:58:06;2.42;;;2.22;;
18818;SDS011;9537;45.594;9.294;2022-07-29T01:59:08;2.60;;;2.40;;
18818;SDS011;9537;45.594;9.294;2022-07-29T02:00:13;2.75;;;2.25;;
18818;SDS011;9537;45.594;9.294;2022-07-29T02:01:15;2.35;;;2.15;;
18818;SDS011;9537;45.594;9.294;2022-07-29T02:02:19;4.28;;;2.33;;
18818;SDS011;9537;45.594;9.294;2022-07-29T02:03:22;3.90;;;2.25;;
18818;SDS011;9537;45.594;9.294;2022-07-29T02:04:25;2.80;;;2.13;;
18818;SDS011;9537;45.594;9.294;2022-07-29T02:05:28;2.65;;;2.40;;
18818;SDS011;9537;45.594;9.294;2022-07-29T02:06:32;3.45;;;2.42;;
18818;SDS011;9537;45.594;9.294;2022-07-29T02:07:36;7.68;;;3.42;;
18818;SDS011;9537;45.594;9.294;2022-07-29T02:08:39;3.35;;;2.33;;
18818;SDS011;9537;45.594;9.294;2022-07-29T02:09:41;3.35;;;2.20;;
18818;SDS011;9537;45.594;9.294;2022-07-29T02:10:45;3.42;;;2.50;;
18818;SDS011;9537;45.594;9.294;2022-07-29T02:11:48;3.33;;;2.38;;
18818;SDS011;9537;45.594;9.294;2022-07-29T02:12:54;2.65;;;2.35;;
18818;SDS011;9537;45.594;9.294;2022-07-29T02:13:57;2.78;;;2.50;;
18818;SDS011;9537;45.594;9.294;2022-07-29T02:15:02;6.28;;;3.28;;
18818;SDS011;9537;45.594;9.294;2022-07-29T02:16:08;2.88;;;2.55;;
18818;SDS011;9537;45.594;9.294;2022-07-29T02:17:11;2.78;;;2.33;;
18818;SDS011;9537;45.594;9.294;2022-07-29T02:18:14;4.63;;;2.50;;
18818;SDS011;9537;45.594;9.294;2022-07-29T02:19:19;3.60;;;2.85;;
18818;SDS011;9537;45.594;9.294;2022-07-29T02:20:22;3.72;;;2.40;;
18818;SDS011;9537;45.594;9.294;2022-07-29T02:21:27;3.03;;;2.25;;
18818;SDS011;9537;45.594;9.294;2022-07-29T02:22:31;5.30;;;2.80;;
18818;SDS011;9537;45.594;9.294;2022-07-29T02:23:36;2.67;;;2.47;;
18818;SDS011;9537;45.594;9.294;2022-07-29T02:24:40;3.05;;;2.40;;
18818;SDS011;9537;45.594;9.294;2022-07-29T02:25:43;4.25;;;2.58;;
18818;SDS011;9537;45.594;9.294;2022-07-29T02:26:46;2.75;;;2.45;;
18818;SDS011;9537;45.594;9.294;2022-07-29T02:27:50;2.92;;;2.63;;
18818;SDS011;9537;45.594;9.294;2022-07-29T02:28:54;2.78;;;2.50;;
18818;SDS011;9537;45.594;9.294;2022-07-29T02:29:56;3.47;;;2.75;;
18818;SDS011;9537;45.594;9.294;2022-07-29T02:31:03;3.25;;;2.47;;
18818;SDS011;9537;45.594;9.294;2022-07-29T02:32:07;3.67;;;2.60;;
18818;SDS011;9537;45.594;9.294;2022-07-29T02:33:13;3.50;;;2.60;;
18818;SDS011;9537;45.594;9.294;2022-07-29T02:34:16;4.20;;;2.60;;
18818;SDS011;9537;45.594;9.294;2022-07-29T02:35:19;2.92;;;2.33;;
18818;SDS011;9537;45.594;9.294;2022-07-29T02:36:22;3.97;;;3.00;;
18818;SDS011;9537;45.594;9.294;2022-07-29T02:37:26;4.20;;;2.90;;
18818;SDS011;9537;45.594;9.294;2022-07-29T02:38:28;3.13;;;2.80;;
18818;SDS011;9537;45.594;9.294;2022-07-29T02:39:49;4.32;;;2.70;;
18818;SDS011;9537;45.594;9.294;2022-07-29T02:40:53;3.10;;;2.80;;
18818;SDS011;9537;45.594;9.294;2022-07-29T02:41:58;4.18;;;2.88;;
18818;SDS011;9537;45.594;9.294;2022-07-29T02:43:05;3.47;;;2.50;;
18818;SDS011;9537;45.594;9.294;2022-07-29T02:44:09;3.35;;;2.65;;
18818;SDS011;9537;45.594;9.294;2022-07-29T02:45:12;2.65;;;2.45;;
18818;SDS011;9537;45.594;9.294;2022-07-29T02:46:14;2.92;;;2.45;;
18818;SDS011;9537;45.594;9.294;2022-07-29T02:47:22;3.10;;;2.80;;
18818;SDS011;9537;45.594;9.294;2022-07-29T02:48:32;2.65;;;2.45;;
18818;SDS011;9537;45.594;9.294;2022-07-29T02:49:38;4.32;;;2.22;;
18818;SDS011;9537;45.594;9.294;2022-07-29T02:50:47;2.50;;;2.10;;
18818;SDS011;9537;45.594;9.294;2022-07-29T02:51:54;2.90;;;2.60;;
18818;SDS011;9537;45.594;9.294;2022-07-29T02:53:01;2.80;;;2.60;;
18818;SDS011;9537;45.594;9.294;2022-07-29T02:54:06;3.17;;;2.50;;
18818;SDS011;9537;45.594;9.294;2022-07-29T02:55:12;3.03;;;2.70;;
18818;SDS011;9537;45.594;9.294;2022-07-29T02:56:19;4.18;;;2.40;;
18818;SDS011;9537;45.594;9.294;2022-07-29T02:57:28;3.40;;;2.33;;
18818;SDS011;9537;45.594;9.294;2022-07-29T02:58:37;3.35;;;2.53;;
18818;SDS011;9537;45.594;9.294;2022-07-29T02:59:39;3.13;;;2.70;;
18818;SDS011;9537;45.594;9.294;2022-07-29T03:00:44;4.07;;;2.70;;
18818;SDS011;9537;45.594;9.294;2022-07-29T03:01:48;3.15;;;2.60;;
18818;SDS011;9537;45.594;9.294;2022-07-29T03:02:55;4.72;;;2.80;;
18818;SDS011;9537;45.594;9.294;2022-07-29T03:04:00;2.97;;;2.67;;
18818;SDS011;9537;45.594;9.294;2022-07-29T03:05:05;2.55;;;2.35;;
18818;SDS011;9537;45.594;9.294;2022-07-29T03:06:10;3.55;;;2.63;;
18818;SDS011;9537;45.594;9.294;2022-07-29T03:07:13;2.47;;;2.28;;
18818;SDS011;9537;45.594;9.294;2022-07-29T03:08:19;3.28;;;2.50;;
18818;SDS011;9537;45.594;9.294;2022-07-29T03:09:21;2.60;;;2.38;;
18818;SDS011;9537;45.594;9.294;2022-07-29T03:10:25;4.85;;;2.72;;
18818;SDS011;9537;45.594;9.294;2022-07-29T03:11:27;3.10;;;2.28;;
18818;SDS011;9537;45.594;9.294;2022-07-29T03:12:30;3.00;;;2.70;;
18818;SDS011;9537;45.594;9.294;2022-07-29T03:13:32;3.03;;;2.83;;
18818;SDS011;9537;45.594;9.294;2022-07-29T03:14:35;3.65;;;2.70;;
18818;SDS011;9537;45.594;9.294;2022-07-29T03:15:38;6.30;;;2.83;;
18818;SDS011;9537;45.594;9.294;2022-07-29T03:16:39;4.32;;;2.70;;
18818;SDS011;9537;45.594;9.294;2022-07-29T03:17:42;2.92;;;2.58;;
18818;SDS011;9537;45.594;9.294;2022-07-29T03:18:47;2.85;;;2.30;;
18818;SDS011;9537;45.594;9.294;2022-07-29T03:19:48;3.13;;;2.60;;
18818;SDS011;9537;45.594;9.294;2022-07-29T03:20:50;3.13;;;2.80;;
18818;SDS011;9537;45.594;9.294;2022-07-29T03:21:52;3.70;;;2.85;;
18818;SDS011;9537;45.594;9.294;2022-07-29T03:22:56;3.03;;;2.42;;
18818;SDS011;9537;45.594;9.294;2022-07-29T03:23:57;3.67;;;3.25;;
18818;SDS011;9537;45.594;9.294;2022-07-29T03:25:06;2.78;;;2.47;;
18818;SDS011;9537;45.594;9.294;2022-07-29T03:26:09;3.88;;;2.90;;
18818;SDS011;9537;45.594;9.294;2022-07-29T03:27:10;3.38;;;2.42;;
18818;SDS011;9537;45.594;9.294;2022-07-29T03:28:13;4.80;;;3.28;;
18818;SDS011;9537;45.594;9.294;2022-07-29T03:29:14;3.20;;;2.70;;
18818;SDS011;9537;45.594;9.294;2022-07-29T03:30:16;4.50;;;2.97;;
18818;SDS011;9537;45.594;9.294;2022-07-29T03:31:17;4.05;;;3.05;;
18818;SDS011;9537;45.594;9.294;2022-07-29T03:32:19;5.88;;;3.55;;
18818;SDS011;9537;45.594;9.294;2022-07-29T03:33:21;3.47;;;3.13;;
18818;SDS011;9537;45.594;9.294;2022-07-29T03:34:23;3.70;;;3.20;;
18818;SDS011;9537;45.594;9.294;2022-07-29T03:35:25;7.85;;;3.17;;
18818;SDS011;9537;45.594;9.294;2022-07-29T03:36:27;7.72;;;2.75;;
18818;SDS011;9537;45.594;9.294;2022-07-29T03:37:29;3.35;;;2.85;;
18818;SDS011;9537;45.594;9.294;2022-07-29T03:38:32;3.53;;;2.38;;
18818;SDS011;9537;45.594;9.294;2022-07-29T03:39:37;3.10;;;2.70;;
18818;SDS011;9537;45.594;9.294;2022-07-29T03:40:42;4.35;;;2.58;;
18818;SDS011;9537;45.594;9.294;2022-07-29T03:41:47;6.47;;;3.45;;
18818;SDS011;9537;45.594;9.294;2022-07-29T03:42:51;4.60;;;2.42;;
18818;SDS011;9537;45.594;9.294;2022-07-29T03:43:54;2.55;;;2.35;;
18818;SDS011;9537;45.594;9.294;2022-07-29T03:44:58;2.83;;;2.58;;
18818;SDS011;9537;45.594;9.294;2022-07-29T03:46:02;2.95;;;2.50;;
18818;SDS011;9537;45.594;9.294;2022-07-29T03:47:07;2.35;;;2.13;;
18818;SDS011;9537;45.594;9.294;2022-07-29T03:48:10;4.78;;;2.55;;
18818;SDS011;9537;45.594;9.294;2022-07-29T03:49:16;3.72;;;2.33;;
18818;SDS011;9537;45.594;9.294;2022-07-29T03:50:19;3.38;;;2.50;;
18818;SDS011;9537;45.594;9.294;2022-07-29T03:51:22;5.97;;;2.63;;
18818;SDS011;9537;45.594;9.294;2022-07-29T03:52:24;2.83;;;2.50;;
18818;SDS011;9537;45.594;9.294;2022-07-29T03:53:25;2.60;;;2.40;;
18818;SDS011;9537;45.594;9.294;2022-07-29T03:54:26;2.30;;;2.10;;
18818;SDS011;9537;45.594;9.294;2022-07-29T03:55:29;3.45;;;2.28;;
18818;SDS011;9537;45.594;9.294;2022-07-29T03:56:37;5.30;;;2.63;;
18818;SDS011;9537;45.594;9.294;2022-07-29T03:57:41;3.25;;;2.60;;
18818;SDS011;9537;45.594;9.294;2022-07-29T03:58:43;3.33;;;2.20;;
18818;SDS011;9537;45.594;9.294;2022-07-29T03:59:45;3.95;;;2.33;;
18818;SDS011;9537;45.594;9.294;2022-07-29T04:00:47;4.45;;;2.35;;
18818;SDS011;9537;45.594;9.294;2022-07-29T04:01:50;4.22;;;2.22;;
18818;SDS011;9537;45.594;9.294;2022-07-29T04:02:54;2.47;;;2.15;;
18818;SDS011;9537;45.594;9.294;2022-07-29T04:03:56;3.50;;;2.38;;
18818;SDS011;9537;45.594;9.294;2022-07-29T04:04:58;3.60;;;2.58;;
18818;SDS011;9537;45.594;9.294;2022-07-29T04:06:02;6.70;;;2.53;;
18818;SDS011;9537;45.594;9.294;2022-07-29T04:07:06;2.20;;;2.00;;
18818;SDS011;9537;45.594;9.294;2022-07-29T04:08:08;4.47;;;2.20;;
18818;SDS011;9537;45.594;9.294;2022-07-29T04:09:09;3.45;;;2.65;;
18818;SDS011;9537;45.594;9.294;2022-07-29T04:10:11;7.15;;;2.40;;
18818;SDS011;9537;45.594;9.294;2022-07-29T04:11:12;3.20;;;2.53;;
18818;SDS011;9537;45.594;9.294;2022-07-29T04:12:14;3.38;;;2.15;;
18818;SDS011;9537;45.594;9.294;2022-07-29T04:13:15;3.58;;;2.38;;
18818;SDS011;9537;45.594;9.294;2022-07-29T04:14:17;2.55;;;2.13;;
18818;SDS011;9537;45.594;9.294;2022-07-29T04:15:18;3.72;;;2.33;;
18818;SDS011;9537;45.594;9.294;2022-07-29T04:16:24;3.65;;;2.22;;
18818;SDS011;9537;45.594;9.294;2022-07-29T04:17:25;3.63;;;2.33;;
18818;SDS011;9537;45.594;9.294;2022-07-29T04:18:27;2.53;;;2.30;;
18818;SDS011;9537;45.594;9.294;2022-07-29T04:19:28;3.17;;;2.60;;
18818;SDS011;9537;45.594;9.294;2022-07-29T04:20:30;5.57;;;2.20;;
18818;SDS011;9537;45.594;9.294;2022-07-29T04:21:32;2.95;;;2.42;;
18818;SDS011;9537;45.594;9.294;2022-07-29T04:22:38;6.93;;;2.50;;
18818;SDS011;9537;45.594;9.294;2022-07-29T04:23:39;3.25;;;2.38;;
18818;SDS011;9537;45.594;9.294;2022-07-29T04:24:41;4.13;;;2.63;;
18818;SDS011;9537;45.594;9.294;2022-07-29T04:25:42;3.17;;;2.55;;
18818;SDS011;9537;45.594;9.294;2022-07-29T04:26:44;2.63;;;2.40;;
18818;SDS011;9537;45.594;9.294;2022-07-29T04:27:46;3.95;;;3.03;;
18818;SDS011;9537;45.594;9.294;2022-07-29T04:29:03;3.95;;;2.70;;
18818;SDS011;9537;45.594;9.294;2022-07-29T04:30:04;3.65;;;2.50;;
18818;SDS011;9537;45.594;9.294;2022-07-29T04:31:07;2.42;;;2.22;;
18818;SDS011;9537;45.594;9.294;2022-07-29T04:32:08;2.92;;;2.35;;
18818;SDS011;9537;45.594;9.294;2022-07-29T04:33:10;2.92;;;2.40;;
18818;SDS011;9537;45.594;9.294;2022-07-29T04:34:12;3.13;;;2.45;;
18818;SDS011;9537;45.594;9.294;2022-07-29T04:35:14;4.30;;;2.60;;
18818;SDS011;9537;45.594;9.294;2022-07-29T04:36:15;3.78;;;2.50;;
18818;SDS011;9537;45.594;9.294;2022-07-29T04:37:18;3.03;;;2.40;;
18818;SDS011;9537;45.594;9.294;2022-07-29T04:38:19;3.30;;;2.40;;
18818;SDS011;9537;45.594;9.294;2022-07-29T04:39:22;2.70;;;2.22;;
18818;SDS011;9537;45.594;9.294;2022-07-29T04:40:23;2.88;;;2.20;;
18818;SDS011;9537;45.594;9.294;2022-07-29T04:41:25;2.50;;;2.30;;
18818;SDS011;9537;45.594;9.294;2022-07-29T04:42:26;2.72;;;2.20;;
18818;SDS011;9537;45.594;9.294;2022-07-29T04:43:28;3.10;;;2.55;;
18818;SDS011;9537;45.594;9.294;2022-07-29T04:44:29;3.08;;;2.25;;
18818;SDS011;9537;45.594;9.294;2022-07-29T04:45:31;3.33;;;2.38;;
18818;SDS011;9537;45.594;9.294;2022-07-29T04:46:33;2.40;;;2.20;;
18818;SDS011;9537;45.594;9.294;2022-07-29T04:47:36;2.80;;;2.08;;
18818;SDS011;9537;45.594;9.294;2022-07-29T04:48:37;4.38;;;2.67;;
18818;SDS011;9537;45.594;9.294;2022-07-29T04:49:38;2.33;;;2.13;;
18818;SDS011;9537;45.594;9.294;2022-07-29T04:50:40;2.85;;;2.33;;
18818;SDS011;9537;45.594;9.294;2022-07-29T04:51:42;2.38;;;2.10;;
18818;SDS011;9537;45.594;9.294;2022-07-29T04:52:44;3.13;;;2.30;;
18818;SDS011;9537;45.594;9.294;2022-07-29T04:53:46;4.47;;;2.50;;
18818;SDS011;9537;45.594;9.294;2022-07-29T04:54:48;4.15;;;2.58;;
18818;SDS011;9537;45.594;9.294;2022-07-29T04:55:50;3.38;;;2.53;;
18818;SDS011;9537;45.594;9.294;2022-07-29T04:56:51;3.70;;;2.58;;
18818;SDS011;9537;45.594;9.294;2022-07-29T04:57:53;3.55;;;2.60;;
18818;SDS011;9537;45.594;9.294;2022-07-29T04:58:55;2.75;;;2.47;;
18818;SDS011;9537;45.594;9.294;2022-07-29T04:59:57;3.05;;;2.40;;
18818;SDS011;9537;45.594;9.294;2022-07-29T05:00:58;2.38;;;2.10;;
18818;SDS011;9537;45.594;9.294;2022-07-29T05:02:00;4.43;;;2.50;;
18818;SDS011;9537;45.594;9.294;2022-07-29T05:03:01;2.88;;;2.42;;
18818;SDS011;9537;45.594;9.294;2022-07-29T05:04:03;3.40;;;2.38;;
18818;SDS011;9537;45.594;9.294;2022-07-29T05:05:04;2.80;;;2.30;;
18818;SDS011;9537;45.594;9.294;2022-07-29T05:06:06;3.97;;;2.63;;
18818;SDS011;9537;45.594;9.294;2022-07-29T05:07:07;3.78;;;2.35;;
18818;SDS011;9537;45.594;9.294;2022-07-29T05:08:10;4.07;;;2.47;;
18818;SDS011;9537;45.594;9.294;2022-07-29T05:09:12;5.25;;;2.60;;
18818;SDS011;9537;45.594;9.294;2022-07-29T05:10:13;2.53;;;2.20;;
18818;SDS011;9537;45.594;9.294;2022-07-29T05:11:16;2.92;;;2.45;;
18818;SDS011;9537;45.594;9.294;2022-07-29T05:12:17;2.65;;;2.35;;
18818;SDS011;9537;45.594;9.294;2022-07-29T05:13:19;3.35;;;2.22;;
18818;SDS011;9537;45.594;9.294;2022-07-29T05:14:20;3.03;;;2.28;;
18818;SDS011;9537;45.594;9.294;2022-07-29T05:15:22;2.67;;;2.40;;
18818;SDS011;9537;45.594;9.294;2022-07-29T05:16:23;4.50;;;2.42;;
18818;SDS011;9537;45.594;9.294;2022-07-29T05:17:25;3.78;;;2.30;;
18818;SDS011;9537;45.594;9.294;2022-07-29T05:18:26;2.63;;;2.38;;
18818;SDS011;9537;45.594;9.294;2022-07-29T05:19:28;3.15;;;2.47;;
18818;SDS011;9537;45.594;9.294;2022-07-29T05:20:29;2.75;;;2.10;;
18818;SDS011;9537;45.594;9.294;2022-07-29T05:21:33;5.05;;;2.50;;
18818;SDS011;9537;45.594;9.294;2022-07-29T05:22:34;3.03;;;2.60;;
18818;SDS011;9537;45.594;9.294;2022-07-29T05:23:37;4.00;;;2.53;;
18818;SDS011;9537;45.594;9.294;2022-07-29T05:24:38;4.60;;;2.63;;
18818;SDS011;9537;45.594;9.294;2022-07-29T05:25:41;5.75;;;2.10;;
18818;SDS011;9537;45.594;9.294;2022-07-29T05:26:42;3.72;;;2.17;;
18818;SDS011;9537;45.594;9.294;2022-07-29T05:27:44;3.45;;;2.33;;
18818;SDS011;9537;45.594;9.294;2022-07-29T05:28:46;3.50;;;2.60;;
18818;SDS011;9537;45.594;9.294;2022-07-29T05:29:47;3.58;;;2.40;;
18818;SDS011;9537;45.594;9.294;2022-07-29T05:30:49;3.92;;;2.80;;
18818;SDS011;9537;45.594;9.294;2022-07-29T05:31:50;5.97;;;2.58;;
18818;SDS011;9537;45.594;9.294;2022-07-29T05:32:53;2.85;;;2.40;;
18818;SDS011;9537;45.594;9.294;2022-07-29T05:33:54;3.60;;;2.80;;
18818;SDS011;9537;45.594;9.294;2022-07-29T05:34:56;3.25;;;2.63;;
18818;SDS011;9537;45.594;9.294;2022-07-29T05:35:57;2.22;;;2.03;;
18818;SDS011;9537;45.594;9.294;2022-07-29T05:36:59;3.55;;;2.70;;
18818;SDS011;9537;45.594;9.294;2022-07-29T05:38:00;4.10;;;2.78;;
18818;SDS011;9537;45.594;9.294;2022-07-29T05:39:03;5.88;;;2.92;;
18818;SDS011;9537;45.594;9.294;2022-07-29T05:40:05;3.80;;;2.70;;
18818;SDS011;9537;45.594;9.294;2022-07-29T05:41:07;4.22;;;3.20;;
18818;SDS011;9537;45.594;9.294;2022-07-29T05:42:09;4.53;;;2.80;;
18818;SDS011;9537;45.594;9.294;2022-07-29T05:43:12;5.22;;;2.92;;
18818;SDS011;9537;45.594;9.294;2022-07-29T05:44:14;5.13;;;2.92;;
18818;SDS011;9537;45.594;9.294;2022-07-29T05:45:15;6.93;;;3.40;;
18818;SDS011;9537;45.594;9.294;2022-07-29T05:46:17;6.13;;;3.42;;
18818;SDS011;9537;45.594;9.294;2022-07-29T05:47:18;4.38;;;3.17;;
18818;SDS011;9537;45.594;9.294;2022-07-29T05:48:19;3.28;;;2.65;;
18818;SDS011;9537;45.594;9.294;2022-07-29T05:49:21;7.65;;;3.22;;
18818;SDS011;9537;45.594;9.294;2022-07-29T05:50:22;4.78;;;3.40;;
18818;SDS011;9537;45.594;9.294;2022-07-29T05:51:24;3.47;;;2.78;;
18818;SDS011;9537;45.594;9.294;2022-07-29T05:52:26;3.20;;;2.58;;
18818;SDS011;9537;45.594;9.294;2022-07-29T05:53:27;3.17;;;2.42;;
18818;SDS011;9537;45.594;9.294;2022-07-29T05:54:31;5.97;;;2.60;;
18818;SDS011;9537;45.594;9.294;2022-07-29T05:55:33;2.75;;;2.40;;
18818;SDS011;9537;45.594;9.294;2022-07-29T05:56:35;4.40;;;2.30;;
18818;SDS011;9537;45.594;9.294;2022-07-29T05:57:36;3.25;;;2.05;;
18818;SDS011;9537;45.594;9.294;2022-07-29T05:58:38;4.75;;;2.80;;
18818;SDS011;9537;45.594;9.294;2022-07-29T05:59:39;4.78;;;3.20;;
18818;SDS011;9537;45.594;9.294;2022-07-29T06:00:41;5.35;;;2.70;;
18818;SDS011;9537;45.594;9.294;2022-07-29T06:01:42;2.78;;;2.45;;
18818;SDS011;9537;45.594;9.294;2022-07-29T06:02:44;2.10;;;1.85;;
18818;SDS011;9537;45.594;9.294;2022-07-29T06:03:45;4.53;;;2.20;;
18818;SDS011;9537;45.594;9.294;2022-07-29T06:04:47;5.20;;;1.98;;
18818;SDS011;9537;45.594;9.294;2022-07-29T06:05:49;2.03;;;1.70;;
18818;SDS011;9537;45.594;9.294;2022-07-29T06:06:51;1.88;;;1.65;;
18818;SDS011;9537;45.594;9.294;2022-07-29T06:07:52;2.78;;;1.75;;
18818;SDS011;9537;45.594;9.294;2022-07-29T06:08:54;1.85;;;1.73;;
18818;SDS011;9537;45.594;9.294;2022-07-29T06:09:57;1.95;;;1.70;;
18818;SDS011;9537;45.594;9.294;2022-07-29T06:10:59;2.65;;;2.05;;
18818;SDS011;9537;45.594;9.294;2022-07-29T06:12:00;3.08;;;1.67;;
18818;SDS011;9537;45.594;9.294;2022-07-29T06:13:01;4.05;;;1.85;;
18818;SDS011;9537;45.594;9.294;2022-07-29T06:14:03;3.65;;;1.70;;
18818;SDS011;9537;45.594;9.294;2022-07-29T06:15:05;2.50;;;1.55;;
18818;SDS011;9537;45.594;9.294;2022-07-29T06:16:06;2.55;;;1.83;;
18818;SDS011;9537;45.594;9.294;2022-07-29T06:17:08;2.53;;;2.00;;
18818;SDS011;9537;45.594;9.294;2022-07-29T06:18:12;1.75;;;1.63;;
18818;SDS011;9537;45.594;9.294;2022-07-29T06:19:14;2.78;;;1.83;;
18818;SDS011;9537;45.594;9.294;2022-07-29T06:20:15;2.80;;;1.80;;
18818;SDS011;9537;45.594;9.294;2022-07-29T06:21:17;1.92;;;1.60;;
18818;SDS011;9537;45.594;9.294;2022-07-29T06:22:18;3.08;;;1.95;;
18818;SDS011;9537;45.594;9.294;2022-07-29T06:23:20;14.65;;;2.67;;
18818;SDS011;9537;45.594;9.294;2022-07-29T06:24:21;4.15;;;1.70;;
18818;SDS011;9537;45.594;9.294;2022-07-29T06:25:26;2.10;;;1.60;;
18818;SDS011;9537;45.594;9.294;2022-07-29T06:26:29;2.95;;;2.10;;
18818;SDS011;9537;45.594;9.294;2022-07-29T06:27:31;2.97;;;1.98;;
18818;SDS011;9537;45.594;9.294;2022-07-29T06:28:32;3.08;;;2.72;;
18818;SDS011;9537;45.594;9.294;2022-07-29T06:29:34;4.18;;;3.50;;
18818;SDS011;9537;45.594;9.294;2022-07-29T06:30:35;3.45;;;2.50;;
18818;SDS011;9537;45.594;9.294;2022-07-29T06:31:37;3.00;;;2.40;;
18818;SDS011;9537;45.594;9.294;2022-07-29T06:32:39;3.05;;;2.00;;
18818;SDS011;9537;45.594;9.294;2022-07-29T06:33:40;3.08;;;1.50;;
18818;SDS011;9537;45.594;9.294;2022-07-29T06:34:41;1.95;;;1.50;;
18818;SDS011;9537;45.594;9.294;2022-07-29T06:35:44;4.03;;;1.50;;
18818;SDS011;9537;45.594;9.294;2022-07-29T06:36:47;2.72;;;1.77;;
18818;SDS011;9537;45.594;9.294;2022-07-29T06:37:50;2.75;;;1.60;;
18818;SDS011;9537;45.594;9.294;2022-07-29T06:38:51;2.85;;;1.55;;
18818;SDS011;9537;45.594;9.294;2022-07-29T06:39:53;3.72;;;1.48;;
18818;SDS011;9537;45.594;9.294;2022-07-29T06:41:10;2.33;;;1.38;;
18818;SDS011;9537;45.594;9.294;2022-07-29T06:42:16;2.50;;;1.40;;
18818;SDS011;9537;45.594;9.294;2022-07-29T06:43:17;1.27;;;1.17;;
18818;SDS011;9537;45.594;9.294;2022-07-29T06:44:19;2.90;;;1.50;;
18818;SDS011;9537;45.594;9.294;2022-07-29T06:45:21;1.83;;;1.35;;
18818;SDS011;9537;45.594;9.294;2022-07-29T06:46:22;1.98;;;1.40;;
18818;SDS011;9537;45.594;9.294;2022-07-29T06:47:24;2.05;;;1.50;;